createdAt,value
2023-04-29T00:02:49.130Z,11.68
2023-04-29T00:05:51.882Z,11.38
2023-04-29T00:08:54.210Z,11.18
2023-04-29T00:11:56.656Z,10.88
2023-04-29T00:14:59.548Z,10.18
2023-04-29T00:18:02.020Z,10.23
2023-04-29T00:21:05.990Z,10.13
2023-04-29T00:24:08.518Z,10.00
2023-04-29T00:27:11.918Z,9.90
2023-04-29T00:30:14.400Z,10.25
2023-04-29T00:33:16.674Z,10.60
2023-04-29T00:36:19.136Z,10.43
2023-04-29T00:39:21.308Z,10.07
2023-04-29T00:42:24.106Z,9.85
2023-04-29T00:45:27.563Z,10.20
2023-04-29T00:48:30.103Z,10.73
2023-04-29T00:51:33.672Z,10.20
2023-04-29T00:54:37.365Z,9.68
2023-04-29T00:57:39.586Z,8.98
2023-04-29T01:00:44.005Z,9.10
2023-04-29T01:03:46.410Z,9.00
2023-04-29T01:07:13.620Z,8.60
2023-04-29T01:10:23.988Z,8.80
2023-04-29T01:13:37.802Z,8.98
2023-04-29T01:16:47.242Z,9.07
2023-04-29T01:19:55.971Z,8.82
2023-04-29T01:22:58.457Z,8.63
2023-04-29T01:26:01.356Z,8.43
2023-04-29T01:29:28.684Z,8.43
2023-04-29T01:32:52.423Z,8.10
2023-04-29T01:36:13.433Z,7.87
2023-04-29T01:39:32.852Z,8.40
2023-04-29T01:42:35.908Z,7.87
2023-04-29T01:45:42.155Z,7.62
2023-04-29T01:48:44.457Z,7.35
2023-04-29T01:51:46.873Z,7.45
2023-04-29T01:54:49.122Z,6.87
2023-04-29T01:57:51.955Z,7.00
2023-04-29T02:00:55.548Z,6.68
2023-04-29T02:03:58.889Z,6.57
2023-04-29T02:07:01.630Z,6.45
2023-04-29T02:10:04.471Z,6.35
2023-04-29T02:13:08.505Z,6.25
2023-04-29T02:16:13.442Z,6.00
2023-04-29T02:19:17.026Z,5.80
2023-04-29T02:22:19.536Z,6.05
2023-04-29T02:25:21.740Z,5.62
2023-04-29T02:28:24.208Z,5.75
2023-04-29T02:31:26.435Z,5.68
2023-04-29T02:34:29.281Z,5.53
2023-04-29T02:37:32.056Z,5.87
2023-04-29T02:40:34.566Z,5.68
2023-04-29T02:43:36.748Z,5.35
2023-04-29T02:46:41.500Z,5.40
2023-04-29T02:49:43.750Z,5.93
2023-04-29T02:52:47.601Z,5.68
2023-04-29T02:55:49.730Z,5.07
2023-04-29T02:58:52.192Z,5.22
2023-04-29T03:01:54.615Z,5.12
2023-04-29T03:04:57.063Z,5.45
2023-04-29T03:07:59.262Z,5.47
2023-04-29T03:11:02.760Z,5.78
2023-04-29T03:14:05.151Z,5.25
2023-04-29T03:17:07.902Z,5.12
2023-04-29T03:20:10.933Z,5.05
2023-04-29T03:23:13.631Z,5.12
2023-04-29T03:26:15.894Z,5.43
2023-04-29T03:29:18.523Z,5.82
2023-04-29T03:32:20.664Z,5.60
2023-04-29T03:35:23.116Z,5.90
2023-04-29T03:38:26.182Z,5.65
2023-04-29T03:41:28.745Z,5.65
2023-04-29T03:44:31.332Z,5.90
2023-04-29T03:47:33.917Z,6.07
2023-04-29T03:50:37.330Z,6.45
2023-04-29T03:53:40.372Z,6.43
2023-04-29T03:56:43.415Z,6.00
2023-04-29T03:59:50.145Z,5.75
2023-04-29T04:02:53.068Z,5.50
2023-04-29T04:05:55.986Z,5.85
2023-04-29T04:08:58.409Z,6.72
2023-04-29T04:12:01.191Z,6.03
2023-04-29T04:15:04.266Z,6.53
2023-04-29T04:18:06.943Z,6.93
2023-04-29T04:21:10.514Z,7.47
2023-04-29T04:24:13.429Z,6.65
2023-04-29T04:27:15.819Z,6.93
2023-04-29T04:30:18.981Z,7.32
2023-04-29T04:33:21.200Z,7.07
2023-04-29T04:36:24.213Z,6.85
2023-04-29T04:39:26.396Z,7.18
2023-04-29T04:42:29.922Z,7.05
2023-04-29T04:45:32.454Z,5.93
2023-04-29T04:48:35.006Z,6.18
2023-04-29T04:51:47.346Z,6.30
2023-04-29T04:54:49.877Z,6.22
2023-04-29T04:57:56.399Z,5.78
2023-04-29T05:01:01.371Z,6.40
2023-04-29T05:04:03.849Z,6.12
2023-04-29T05:07:06.400Z,6.43
2023-04-29T05:10:10.069Z,6.87
2023-04-29T05:13:13.053Z,6.50
2023-04-29T05:16:17.346Z,6.55
2023-04-29T05:19:20.221Z,6.55
2023-04-29T05:22:22.629Z,6.95
2023-04-29T05:25:25.244Z,6.62
2023-04-29T05:28:28.464Z,6.50
2023-04-29T05:31:32.413Z,7.80
2023-04-29T05:34:36.523Z,8.00
2023-04-29T05:37:39.064Z,8.65
2023-04-29T05:40:41.603Z,7.18
2023-04-29T05:43:45.614Z,8.27
2023-04-29T05:46:48.880Z,8.48
2023-04-29T05:49:51.916Z,7.85
2023-04-29T05:52:56.384Z,8.45
2023-04-29T05:55:59.858Z,7.50
2023-04-29T05:59:02.200Z,7.50
2023-04-29T06:02:04.692Z,7.50
2023-04-29T06:05:08.301Z,7.45
2023-04-29T06:08:11.440Z,7.35
2023-04-29T06:11:16.586Z,6.97
2023-04-29T06:14:18.940Z,6.82
2023-04-29T06:17:21.646Z,7.35
2023-04-29T06:20:23.815Z,7.78
2023-04-29T06:23:26.570Z,7.03
2023-04-29T06:26:28.914Z,7.32
2023-04-29T06:29:31.656Z,7.03
2023-04-29T06:32:34.045Z,6.70
2023-04-29T06:35:40.096Z,6.50
2023-04-29T06:38:43.024Z,7.22
2023-04-29T06:41:46.664Z,6.40
2023-04-29T06:44:48.953Z,5.60
2023-04-29T06:47:54.445Z,6.85
2023-04-29T06:50:58.815Z,6.75
2023-04-29T06:54:01.718Z,6.15
2023-04-29T06:57:03.870Z,6.25
2023-04-29T07:00:06.895Z,6.15
2023-04-29T07:03:09.917Z,6.18
2023-04-29T07:06:12.647Z,6.43
2023-04-29T07:09:15.052Z,6.70
2023-04-29T07:12:17.538Z,7.95
2023-04-29T07:15:19.718Z,9.10
2023-04-29T07:18:22.173Z,8.68
2023-04-29T07:21:24.354Z,8.90
2023-04-29T07:24:26.822Z,7.80
2023-04-29T07:27:29.540Z,7.78
2023-04-29T07:30:33.279Z,7.37
2023-04-29T07:33:35.965Z,7.18
2023-04-29T07:36:38.423Z,6.80
2023-04-29T07:39:42.633Z,6.62
2023-04-29T07:42:45.745Z,6.78
2023-04-29T07:45:48.611Z,6.32
2023-04-29T07:48:51.909Z,6.75
2023-04-29T07:51:54.232Z,6.62
2023-04-29T07:54:56.667Z,6.80
2023-04-29T07:58:00.535Z,5.70
2023-04-29T08:01:12.080Z,6.57
2023-04-29T08:04:15.844Z,5.80
2023-04-29T08:07:18.428Z,6.40
2023-04-29T08:10:22.493Z,6.78
2023-04-29T08:13:25.817Z,6.60
2023-04-29T08:16:28.376Z,6.45
2023-04-29T08:19:31.188Z,6.10
2023-04-29T08:22:33.922Z,6.65
2023-04-29T08:25:36.285Z,6.30
2023-04-29T08:28:39.321Z,6.20
2023-04-29T08:31:41.595Z,5.97
2023-04-29T08:34:44.553Z,5.87
2023-04-29T08:37:47.626Z,6.32
2023-04-29T08:40:50.050Z,5.90
2023-04-29T08:43:52.302Z,6.40
2023-04-29T08:46:55.929Z,6.75
2023-04-29T08:50:04.190Z,7.07
2023-04-29T08:53:10.465Z,6.43
2023-04-29T08:56:20.503Z,6.60
2023-04-29T08:59:23.799Z,6.47
2023-04-29T09:02:26.352Z,6.35
2023-04-29T09:05:29.172Z,6.60
2023-04-29T09:08:33.438Z,6.12
2023-04-29T09:11:37.149Z,6.28
2023-04-29T09:14:39.308Z,6.22
2023-04-29T09:17:46.709Z,6.18
2023-04-29T09:20:48.939Z,6.60
2023-04-29T09:23:53.803Z,6.18
2023-04-29T09:26:56.580Z,6.10
2023-04-29T09:30:02.143Z,6.20
2023-04-29T09:33:09.054Z,5.80
2023-04-29T09:36:11.602Z,6.55
2023-04-29T09:39:18.985Z,5.90
2023-04-29T09:42:21.502Z,5.78
2023-04-29T09:45:37.200Z,5.65
2023-04-29T09:48:39.624Z,5.90
2023-04-29T09:51:53.197Z,5.55
2023-04-29T09:55:05.093Z,6.05
2023-04-29T09:58:07.211Z,5.37
2023-04-29T10:01:10.361Z,5.32
2023-04-29T10:04:15.483Z,5.25
2023-04-29T10:07:19.102Z,5.65
2023-04-29T10:10:23.159Z,5.10
2023-04-29T10:13:26.812Z,6.47
2023-04-29T10:16:31.476Z,5.82
2023-04-29T10:20:06.477Z,6.12
2023-04-29T10:23:11.197Z,5.15
2023-04-29T10:26:15.231Z,5.35
2023-04-29T10:29:18.897Z,5.70
2023-04-29T10:32:22.290Z,4.95
2023-04-29T10:35:25.645Z,5.68
2023-04-29T10:38:42.511Z,5.35
2023-04-29T10:41:47.075Z,4.78
2023-04-29T10:45:23.653Z,5.28
2023-04-29T10:48:26.631Z,5.87
2023-04-29T10:51:47.037Z,5.00
2023-04-29T10:55:04.992Z,4.82
2023-04-29T10:58:39.259Z,4.75
2023-04-29T11:01:47.623Z,4.25
2023-04-29T11:05:12.638Z,4.57
2023-04-29T11:08:24.525Z,4.90
2023-04-29T11:11:28.339Z,4.45
2023-04-29T11:14:42.033Z,4.22
2023-04-29T11:17:46.932Z,4.37
2023-04-29T11:21:04.435Z,4.25
2023-04-29T11:24:07.086Z,3.95
2023-04-29T11:27:09.880Z,4.40
2023-04-29T11:30:13.418Z,4.32
2023-04-29T11:33:15.990Z,4.00
2023-04-29T11:36:18.393Z,4.87
2023-04-29T11:39:21.105Z,4.35
2023-04-29T11:42:23.755Z,4.78
2023-04-29T11:45:26.870Z,4.53
2023-04-29T11:48:30.319Z,4.50
2023-04-29T11:51:32.932Z,4.30
2023-04-29T11:54:35.270Z,4.35
2023-04-29T11:57:39.216Z,4.57
2023-04-29T12:00:41.515Z,4.45
2023-04-29T12:03:46.427Z,4.85
2023-04-29T12:06:52.717Z,4.25
2023-04-29T12:09:56.642Z,4.82
2023-04-29T12:12:58.947Z,4.35
2023-04-29T12:16:02.185Z,4.37
2023-04-29T12:19:05.160Z,4.70
2023-04-29T12:22:08.425Z,4.45
2023-04-29T12:25:10.849Z,4.62
2023-04-29T12:28:13.943Z,4.90
2023-04-29T12:31:16.873Z,4.15
2023-04-29T12:34:33.903Z,4.47
2023-04-29T12:37:36.298Z,4.32
2023-04-29T12:40:38.851Z,4.20
2023-04-29T12:43:42.346Z,4.93
2023-04-29T12:46:44.806Z,4.82
2023-04-29T12:49:48.280Z,4.18
2023-04-29T12:52:51.175Z,4.30
2023-04-29T12:55:53.977Z,4.18
2023-04-29T12:58:57.047Z,4.25
2023-04-29T13:01:59.824Z,3.72
2023-04-29T13:05:02.634Z,4.37
2023-04-29T13:08:06.814Z,4.40
2023-04-29T13:11:09.246Z,4.53
2023-04-29T13:14:11.441Z,4.80
2023-04-29T13:17:14.042Z,4.47
2023-04-29T13:20:16.510Z,4.00
2023-04-29T13:23:19.005Z,4.05
2023-04-29T13:26:21.342Z,4.03
2023-04-29T13:29:24.103Z,3.85
2023-04-29T13:32:26.363Z,3.70
2023-04-29T13:35:29.736Z,4.25
2023-04-29T13:38:32.342Z,4.07
2023-04-29T13:41:35.450Z,3.85
2023-04-29T13:44:51.809Z,3.60
2023-04-29T13:48:07.306Z,4.12
2023-04-29T14:00:55.046Z,3.42
2023-04-29T14:03:49.997Z,3.75
2023-04-29T14:06:52.768Z,4.32
2023-04-29T14:09:55.287Z,3.53
2023-04-29T14:12:57.423Z,3.90
2023-04-29T14:16:01.985Z,3.90
2023-04-29T14:19:04.447Z,3.70
2023-04-29T14:22:06.934Z,3.87
2023-04-29T14:25:09.573Z,4.32
2023-04-29T14:28:12.673Z,4.28
2023-04-29T14:31:15.193Z,3.97
2023-04-29T14:34:19.462Z,4.07
2023-04-29T14:37:21.659Z,3.50
2023-04-29T14:40:24.306Z,4.00
2023-04-29T14:43:26.469Z,3.78
2023-04-29T14:46:29.587Z,3.47
2023-04-29T14:49:31.975Z,3.15
2023-04-29T14:52:34.368Z,3.50
2023-04-29T14:55:36.513Z,3.25
2023-04-29T14:58:39.286Z,3.00
2023-04-29T15:01:41.510Z,2.87
2023-04-29T15:04:46.030Z,3.58
2023-04-29T15:07:48.238Z,3.20
2023-04-29T15:10:50.888Z,3.03
2023-04-29T15:13:53.046Z,3.70
2023-04-29T15:16:55.528Z,3.20
2023-04-29T15:19:57.655Z,3.47
2023-04-29T15:23:00.049Z,3.10
2023-04-29T15:26:02.200Z,3.33
2023-04-29T15:29:04.620Z,3.50
2023-04-29T15:32:06.952Z,3.53
2023-04-29T15:35:09.710Z,3.47
2023-04-29T15:38:12.312Z,3.60
2023-04-29T15:41:14.761Z,3.60
2023-04-29T15:44:16.923Z,3.40
2023-04-29T15:47:19.384Z,4.18
2023-04-29T15:50:21.704Z,4.22
2023-04-29T15:53:24.120Z,4.12
2023-04-29T15:56:26.327Z,3.90
2023-04-29T15:59:29.461Z,4.15
2023-04-29T16:02:31.884Z,4.07
2023-04-29T16:05:34.533Z,4.00
2023-04-29T16:08:36.712Z,4.25
2023-04-29T16:11:39.225Z,3.70
2023-04-29T16:14:41.402Z,4.05
2023-04-29T16:17:43.956Z,3.92
2023-04-29T16:20:46.187Z,4.05
2023-04-29T16:23:48.752Z,4.57
2023-04-29T16:26:51.011Z,3.90
2023-04-29T16:29:55.555Z,3.85
2023-04-29T16:32:58.059Z,4.22
2023-04-29T16:36:00.556Z,4.15
2023-04-29T16:39:04.634Z,3.90
2023-04-29T16:42:07.621Z,3.58
2023-04-29T16:45:10.276Z,3.83
2023-04-29T16:48:12.852Z,3.95
2023-04-29T16:51:15.009Z,4.43
2023-04-29T16:54:17.775Z,3.62
2023-04-29T16:57:21.335Z,4.22
2023-04-29T17:00:24.300Z,4.03
2023-04-29T17:03:26.528Z,4.05
2023-04-29T17:06:29.039Z,4.07
2023-04-29T17:09:31.261Z,4.30
2023-04-29T17:12:33.768Z,3.80
2023-04-29T17:15:36.065Z,4.10
2023-04-29T17:18:38.558Z,4.03
2023-04-29T17:21:40.759Z,4.25
2023-04-29T17:24:47.416Z,3.95
2023-04-29T17:27:49.576Z,3.85
2023-04-29T17:30:55.681Z,4.70
2023-04-29T17:34:05.481Z,4.30
2023-04-29T17:37:08.279Z,4.55
2023-04-29T17:40:10.872Z,4.40
2023-04-29T17:43:13.316Z,4.30
2023-04-29T17:46:15.643Z,4.55
2023-04-29T17:49:18.186Z,4.22
2023-04-29T17:52:21.358Z,4.50
2023-04-29T17:55:24.028Z,4.62
2023-04-29T17:58:28.868Z,4.50
2023-04-29T18:01:32.634Z,4.60
2023-04-29T18:04:35.249Z,4.62
2023-04-29T18:07:37.388Z,4.75
2023-04-29T18:10:39.819Z,4.47
2023-04-29T18:13:42.103Z,4.40
2023-04-29T18:16:44.770Z,4.65
2023-04-29T18:19:49.193Z,4.40
2023-04-29T18:22:51.911Z,4.60
2023-04-29T18:25:54.100Z,5.03
2023-04-29T18:28:56.710Z,4.50
2023-04-29T18:31:58.991Z,4.50
2023-04-29T18:35:02.021Z,5.07
2023-04-29T18:38:04.340Z,4.90
2023-04-29T18:41:08.461Z,5.00
2023-04-29T18:44:10.962Z,5.28
2023-04-29T18:47:13.421Z,5.28
2023-04-29T18:50:15.567Z,5.05
2023-04-29T18:53:18.313Z,5.07
2023-04-29T18:56:21.355Z,5.37
2023-04-29T18:59:23.809Z,5.05
2023-04-29T19:02:25.984Z,5.60
2023-04-29T19:05:28.461Z,5.60
2023-04-29T19:08:30.718Z,5.47
2023-04-29T19:11:33.248Z,5.72
2023-04-29T19:14:35.499Z,5.18
2023-04-29T19:17:37.996Z,5.35
2023-04-29T19:20:41.037Z,5.43
2023-04-29T19:23:43.700Z,5.68
2023-04-29T19:26:45.914Z,5.30
2023-04-29T19:29:48.763Z,5.60
2023-04-29T19:32:50.966Z,6.28
2023-04-29T19:35:53.518Z,5.68
2023-04-29T19:38:55.728Z,5.70
2023-04-29T19:41:58.286Z,5.70
2023-04-29T19:45:00.561Z,6.15
2023-04-29T19:48:03.476Z,5.78
2023-04-29T19:51:09.317Z,5.45
2023-04-29T19:54:14.940Z,5.45
2023-04-29T19:57:17.037Z,5.72
2023-04-29T20:00:19.563Z,5.37
2023-04-29T20:03:22.065Z,5.40
2023-04-29T20:06:25.695Z,6.28
2023-04-29T20:09:28.146Z,5.50
2023-04-29T20:12:30.461Z,5.80
2023-04-29T20:15:32.903Z,5.90
2023-04-29T20:18:36.117Z,5.95
2023-04-29T20:21:40.240Z,5.70
2023-04-29T20:24:42.463Z,5.57
2023-04-29T20:27:44.915Z,5.40
2023-04-29T20:30:47.006Z,6.25
2023-04-29T20:33:49.503Z,5.95
2023-04-29T20:36:51.761Z,6.80
2023-04-29T20:39:54.362Z,5.53
2023-04-29T20:42:57.625Z,6.22
2023-04-29T20:46:00.724Z,6.05
2023-04-29T20:49:04.474Z,6.20
2023-04-29T20:52:07.138Z,6.00
2023-04-29T20:55:09.424Z,5.75
2023-04-29T20:58:12.087Z,6.15
2023-04-29T21:01:14.410Z,6.07
2023-04-29T21:04:16.996Z,5.87
2023-04-29T21:07:19.239Z,6.18
2023-04-29T21:10:21.817Z,5.60
2023-04-29T21:13:24.032Z,6.15
2023-04-29T21:16:26.716Z,5.80
2023-04-29T21:19:29.019Z,6.20
2023-04-29T21:22:31.600Z,5.80
2023-04-29T21:25:33.941Z,5.57
2023-04-29T21:28:36.447Z,6.20
2023-04-29T21:31:38.686Z,5.82
2023-04-29T21:34:41.183Z,5.95
2023-04-29T21:37:43.305Z,5.55
2023-04-29T21:40:47.756Z,6.12
2023-04-29T21:43:50.482Z,5.93
2023-04-29T21:46:53.107Z,5.75
2023-04-29T21:49:56.224Z,6.18
2023-04-29T21:52:58.900Z,6.25
2023-04-29T21:56:01.057Z,6.32
2023-04-29T21:59:03.567Z,5.82
2023-04-29T22:02:21.774Z,5.93
2023-04-29T22:05:24.740Z,6.10
2023-04-29T22:08:26.936Z,6.47
2023-04-29T22:11:29.494Z,6.30
2023-04-29T22:14:31.614Z,6.45
2023-04-29T22:17:34.109Z,6.60
2023-04-29T22:20:36.338Z,6.70
2023-04-29T22:23:38.805Z,6.50
2023-04-29T22:26:40.992Z,7.40
2023-04-29T22:29:43.424Z,6.30
2023-04-29T22:32:45.672Z,6.55
2023-04-29T22:35:48.082Z,7.00
2023-04-29T22:38:50.242Z,6.75
2023-04-29T22:41:52.697Z,7.12
2023-04-29T22:44:54.810Z,6.50
2023-04-29T22:47:57.275Z,6.95
2023-04-29T22:50:59.681Z,6.50
2023-04-29T22:54:02.096Z,6.87
2023-04-29T22:57:04.357Z,6.60
2023-04-29T23:00:07.397Z,6.78
2023-04-29T23:03:09.606Z,7.28
2023-04-29T23:06:12.376Z,7.00
2023-04-29T23:09:14.654Z,6.97
2023-04-29T23:12:18.161Z,6.10
2023-04-29T23:15:20.262Z,7.18
2023-04-29T23:18:22.677Z,7.22
2023-04-29T23:21:27.062Z,7.12
2023-04-29T23:24:29.506Z,7.87
2023-04-29T23:27:31.695Z,7.93
2023-04-29T23:30:34.677Z,8.65
2023-04-29T23:33:36.861Z,8.18
2023-04-29T23:36:39.385Z,8.55
2023-04-29T23:39:41.545Z,8.85
2023-04-29T23:42:44.097Z,8.30
2023-04-29T23:45:47.233Z,9.02
2023-04-29T23:48:49.777Z,8.65
2023-04-29T23:51:51.877Z,8.95
2023-04-29T23:54:54.294Z,8.40
2023-04-29T23:57:56.452Z,9.00
